Lakeview, OR

4:20 AM PST on December 04, 2016 (GMT -0800)
Lake County

Weather History for KLKV - October, 2013

Change the Weather History Date:

Tuesday, October 29, 2013

  Actual Average Record
Temperature  
Mean Temperature 34 °F -  
Max Temperature 44 °F 52 °F 75 °F (1962)
Min Temperature 24 °F 27 °F 9 °F (1971)
Degree Days  
Heating Degree Days 31    
Moisture  
Dew Point 23 °F    
Average Humidity 68    
Maximum Humidity 86    
Minimum Humidity 46    
Precipitation  
Precipitation 0.00 in - - ()
Sea Level Pressure  
Sea Level Pressure 29.96 in    
Wind  
Wind Speed 7 mph (East)    
Max Wind Speed 12 mph    
Max Gust Speed -    
Visibility 10 miles    
Events      
Averages and records for this station are not official NWS values.
T = Trace of Precipitation, MM = Missing Value Source: NWS Daily Summary

Daily Weather History Graph

Daily Weather History Graph

Search for Another Location

Airport or City:

Trip Planner

Search our weather history database for the weather conditions in past years. The results will help you decide how hot, cold, wet, or windy it might be!

Date:

Astronomy

Oct. 29, 2013 Rise Set
Actual Time 7:31 AM PDT 5:58 PM PDT
Civil Twilight 7:02 AM PDT 6:27 PM PDT
Nautical Twilight 6:29 AM PDT 7:00 PM PDT
Astronomical Twilight 5:56 AM PDT 7:33 PM PDT
Moon 2:21 AM PDT (10/29) 3:19 PM PDT (10/29)
Length of Visible Light 11h 25m
Length of Day
10h 27m
Waning Crescent, 24% of the Moon is Illuminated
Oct 29
Waning Crescent
Nov 3
New
Nov 9
First Quarter
Nov 17
Full
Nov 25
Last Quarter

Hourly Weather History & Observations

Time (PDT) Temp. Windchill Dew Point Humidity Pressure Visibility Wind Dir Wind Speed Gust Speed Precip Events Conditions
12:15 AM 28.4 °F 20.4 °F 23.0 °F 80% 29.83 in 10.0 mi North 8.1 mph - N/A   Overcast
12:35 AM 28.4 °F 18.5 °F 23.0 °F 80% 29.83 in 10.0 mi North 11.5 mph - N/A   Overcast
12:55 AM 28.4 °F 18.5 °F 23.0 °F 80% 29.84 in 10.0 mi North 11.5 mph - N/A   Overcast
1:15 AM 28.4 °F 19.7 °F 23.0 °F 80% 29.85 in 10.0 mi North 9.2 mph - N/A   Overcast
1:35 AM 28.4 °F 18.5 °F 23.0 °F 80% 29.85 in 10.0 mi North 11.5 mph - N/A   Overcast
1:55 AM 28.4 °F 19.1 °F 23.0 °F 80% 29.85 in 10.0 mi NNW 10.4 mph - N/A   Overcast
2:15 AM 28.4 °F 19.7 °F 23.0 °F 80% 29.86 in 10.0 mi North 9.2 mph - N/A   Overcast
2:35 AM 28.4 °F 19.1 °F 23.0 °F 80% 29.86 in 10.0 mi North 10.4 mph - N/A   Overcast
2:55 AM 28.4 °F 18.5 °F 23.0 °F 80% 29.87 in 10.0 mi North 11.5 mph - N/A   Overcast
3:15 AM 28.4 °F 20.4 °F 21.2 °F 74% 29.87 in 10.0 mi North 8.1 mph - N/A   Overcast
3:35 AM 28.4 °F 23.3 °F 23.0 °F 80% 29.87 in 10.0 mi NNW 4.6 mph - N/A   Overcast
3:55 AM 28.4 °F 19.7 °F 23.0 °F 80% 29.87 in 10.0 mi North 9.2 mph - N/A   Overcast
4:15 AM 28.4 °F 20.4 °F 21.2 °F 74% 29.89 in 10.0 mi North 8.1 mph - N/A   Overcast
4:35 AM 28.4 °F 21.2 °F 21.2 °F 74% 29.89 in 10.0 mi NNE 6.9 mph - N/A   Overcast
4:55 AM 28.4 °F 23.3 °F 21.2 °F 74% 29.88 in 10.0 mi North 4.6 mph - N/A   Overcast
5:15 AM 28.4 °F 24.6 °F 21.2 °F 74% 29.90 in 10.0 mi NNE 3.5 mph - N/A   Overcast
5:35 AM 28.4 °F 23.3 °F 21.2 °F 74% 29.91 in 10.0 mi NNE 4.6 mph - N/A   Overcast
5:55 AM 28.4 °F 22.2 °F 21.2 °F 74% 29.91 in 10.0 mi North 5.8 mph - N/A   Overcast
6:15 AM 28.4 °F 21.2 °F 21.2 °F 74% 29.92 in 10.0 mi North 6.9 mph - N/A   Overcast
6:35 AM 28.4 °F 23.3 °F 21.2 °F 74% 29.93 in 10.0 mi NNW 4.6 mph - N/A   Overcast
6:55 AM 28.4 °F 22.2 °F 21.2 °F 74% 29.93 in 10.0 mi NW 5.8 mph - N/A   Overcast
7:15 AM 28.4 °F - 21.2 °F 74% 29.93 in 10.0 mi Calm Calm - N/A   Overcast
7:35 AM 28.4 °F 24.6 °F 23.0 °F 80% 29.94 in 10.0 mi NNW 3.5 mph - N/A   Overcast
7:55 AM 26.6 °F 22.6 °F 21.2 °F 80% 29.95 in 10.0 mi NNE 3.5 mph - N/A   Overcast
8:15 AM 28.4 °F 23.3 °F 21.2 °F 74% 29.95 in 10.0 mi WSW 4.6 mph - N/A   Overcast
8:35 AM 28.4 °F 23.3 °F 23.0 °F 80% 29.95 in 10.0 mi WNW 4.6 mph - N/A   Scattered Clouds
8:55 AM 30.2 °F 26.7 °F 21.2 °F 69% 29.96 in 10.0 mi NW 3.5 mph - N/A   Partly Cloudy
9:15 AM 28.4 °F - 21.2 °F 74% 29.97 in 10.0 mi Calm Calm - N/A   Clear
9:35 AM 30.2 °F - 21.2 °F 69% 29.97 in 10.0 mi Calm Calm - N/A   Partly Cloudy
9:55 AM 30.2 °F 25.4 °F 21.2 °F 69% 29.97 in 10.0 mi North 4.6 mph - N/A   Clear
10:15 AM 33.8 °F 26.4 °F 21.2 °F 60% 29.97 in 10.0 mi North 9.2 mph - N/A   Clear
10:35 AM 33.8 °F 27.0 °F 19.4 °F 56% 29.98 in 10.0 mi North 8.1 mph - N/A   Scattered Clouds
10:55 AM 33.8 °F 27.0 °F 19.4 °F 56% 29.98 in 10.0 mi North 8.1 mph - N/A   Mostly Cloudy
11:15 AM 35.6 °F 32.8 °F 19.4 °F 52% 29.98 in 10.0 mi North 3.5 mph - N/A   Overcast
11:35 AM 37.4 °F - 21.2 °F 52% 29.99 in 10.0 mi Calm Calm - N/A   Overcast
11:55 AM 37.4 °F - 21.2 °F 52% 29.99 in 10.0 mi Calm Calm - N/A   Overcast
12:15 PM 37.4 °F - 19.4 °F 48% 29.98 in 10.0 mi Calm Calm - N/A   Overcast
12:35 PM 37.4 °F 34.9 °F 21.2 °F 52% 29.98 in 10.0 mi SSE 3.5 mph - N/A   Overcast
12:55 PM 39.2 °F - 23.0 °F 52% 29.98 in 10.0 mi Calm Calm - N/A   Overcast
1:15 PM 39.2 °F 35.9 °F 24.8 °F 56% 29.99 in 10.0 mi ESE 4.6 mph - N/A   Overcast
1:35 PM 41.0 °F 39.0 °F 24.8 °F 53% 29.98 in 10.0 mi South 3.5 mph - N/A   Scattered Clouds
1:55 PM 42.8 °F 39.3 °F 24.8 °F 49% 29.97 in 10.0 mi ESE 5.8 mph - N/A   Clear
2:15 PM 44.6 °F 43.1 °F 26.6 °F 49% 29.97 in 10.0 mi SSE 3.5 mph - N/A   Clear
2:35 PM 42.8 °F - 26.6 °F 53% 29.97 in 10.0 mi Calm Calm - N/A   Clear
2:55 PM 44.6 °F 42.2 °F 26.6 °F 49% 29.97 in 10.0 mi SE 4.6 mph - N/A   Clear
3:15 PM 44.6 °F 42.2 °F 24.8 °F 46% 29.97 in 10.0 mi SSW 4.6 mph - N/A   Clear
3:35 PM 44.6 °F - 26.6 °F 49% 29.97 in 10.0 mi Calm Calm - N/A   Clear
3:55 PM 42.8 °F 41.1 °F 26.6 °F 53% 29.97 in 10.0 mi ESE 3.5 mph - N/A   Clear
4:15 PM 44.6 °F 43.1 °F 26.6 °F 49% 29.98 in 10.0 mi SSE 3.5 mph - N/A   Clear
4:35 PM 44.6 °F 42.2 °F 26.6 °F 49% 29.98 in 10.0 mi ESE 4.6 mph - N/A   Clear
4:55 PM 42.8 °F 39.3 °F 26.6 °F 53% 29.98 in 10.0 mi SSE 5.8 mph - N/A   Clear
5:15 PM 42.8 °F 39.3 °F 26.6 °F 53% 29.99 in 10.0 mi SSE 5.8 mph - N/A   Clear
5:35 PM 41.0 °F 35.8 °F 26.6 °F 57% 29.99 in 10.0 mi SSE 8.1 mph - N/A   Clear
5:55 PM 37.4 °F 32.1 °F 26.6 °F 65% 29.99 in 10.0 mi South 6.9 mph - N/A   Clear
6:15 PM 35.6 °F 29.2 °F 26.6 °F 70% 30.00 in 10.0 mi South 8.1 mph - N/A   Clear
6:35 PM 37.4 °F 31.4 °F 26.6 °F 65% 30.01 in 10.0 mi South 8.1 mph - N/A   Mostly Cloudy
6:55 PM 37.4 °F 32.8 °F 26.6 °F 65% 30.01 in 10.0 mi SSE 5.8 mph - N/A   Overcast
7:15 PM 35.6 °F 29.2 °F 26.6 °F 70% 30.02 in 10.0 mi SSE 8.1 mph - N/A   Overcast
7:35 PM 37.4 °F 30.8 °F 28.4 °F 70% 30.02 in 10.0 mi SSE 9.2 mph - N/A   Overcast
7:55 PM 37.4 °F 30.8 °F 28.4 °F 70% 30.02 in 10.0 mi SSE 9.2 mph - N/A   Overcast
8:15 PM 37.4 °F 30.8 °F 28.4 °F 70% 30.02 in 10.0 mi SSE 9.2 mph - N/A   Overcast
8:35 PM 35.6 °F 28.6 °F 26.6 °F 70% 30.02 in 10.0 mi SSE 9.2 mph - N/A   Mostly Cloudy
8:55 PM 33.8 °F 27.0 °F 26.6 °F 75% 30.03 in 10.0 mi SSE 8.1 mph - N/A   Clear
9:15 PM 30.2 °F 24.3 °F 24.8 °F 80% 30.04 in 10.0 mi SSE 5.8 mph - N/A   Clear
9:35 PM 30.2 °F 23.4 °F 26.6 °F 86% 30.04 in 10.0 mi South 6.9 mph - N/A   Clear
9:55 PM 30.2 °F 21.9 °F 24.8 °F 80% 30.05 in 10.0 mi SSE 9.2 mph - N/A   Clear
10:15 PM 28.4 °F 20.4 °F 23.0 °F 80% 30.05 in 10.0 mi SE 8.1 mph - N/A   Clear
10:35 PM 26.6 °F 19.1 °F 23.0 °F 86% 30.05 in 10.0 mi SSE 6.9 mph - N/A   Clear
10:55 PM 26.6 °F 21.2 °F 21.2 °F 80% 30.06 in 10.0 mi SW 4.6 mph - N/A   Clear
11:15 PM 26.6 °F 20.0 °F 21.2 °F 80% 30.05 in 10.0 mi SSW 5.8 mph - N/A   Clear
11:35 PM 24.8 °F 17.9 °F 21.2 °F 86% 30.06 in 10.0 mi SW 5.8 mph - N/A   Clear
11:55 PM 26.6 °F 20.0 °F 21.2 °F 80% 30.06 in 10.0 mi SSW 5.8 mph - N/A   Clear